Portland, Oregon
Current Conditions -  °F | °C
As of 3:53 AM on Friday 31 Oct 2014 (Local Time) from KPDX Reporting Station
Moderate Rain Moderate Rain  
Wind Chill: 56°   Ceiling: 3900
Heat Index: 56°   Visibility: 5mi
Dew Point: 55°   Wind: 3mph
Humidity: 97%   Direction: 70°ENE
Pressure: 29.69"   Gusts: NA
Location:  45.51°N, 122.67°W
Report Text: KPDX 311053Z 07003KT 5SM RA BR FEW009 SCT017 OVC039 13/13 A2969 RMK AO2 SLP052 P0003 T01330128
Loading
Personal Weather Stations






























Interactive Weather Map
Tropical Storm Tracking
New forecast layout! Learn more

10-Day Weather Forecast

Advertisements
Track Severe Weather on mobile